sensor_id;sensor_type;location;lat;lon;timestamp;pressure;altitude;pressure_sealevel;temperature;humidity
32197;BME280;18697;42.770;23.400;2023-07-24T00:00:19;95770.25;;;25.91;57.04
32197;BME280;18697;42.770;23.400;2023-07-24T00:02:45;95764.59;;;25.63;58.64
32197;BME280;18697;42.770;23.400;2023-07-24T00:05:10;95768.28;;;25.42;58.66
32197;BME280;18697;42.770;23.400;2023-07-24T00:07:36;95773.81;;;24.42;60.41
32197;BME280;18697;42.770;23.400;2023-07-24T00:10:02;95768.69;;;24.40;62.32
32197;BME280;18697;42.770;23.400;2023-07-24T00:12:27;95768.94;;;24.71;61.14
32197;BME280;18697;42.770;23.400;2023-07-24T00:14:53;95767.78;;;24.95;60.74
32197;BME280;18697;42.770;23.400;2023-07-24T00:17:18;95772.00;;;25.30;59.96
32197;BME280;18697;42.770;23.400;2023-07-24T00:19:44;95761.94;;;25.21;60.51
32197;BME280;18697;42.770;23.400;2023-07-24T00:22:09;95769.56;;;24.98;60.09
32197;BME280;18697;42.770;23.400;2023-07-24T00:24:35;95775.50;;;25.07;60.40
32197;BME280;18697;42.770;23.400;2023-07-24T00:27:00;95787.22;;;25.40;60.25
32197;BME280;18697;42.770;23.400;2023-07-24T00:29:26;95781.97;;;25.80;58.47
32197;BME280;18697;42.770;23.400;2023-07-24T00:31:52;95775.56;;;25.95;58.23
32197;BME280;18697;42.770;23.400;2023-07-24T00:34:17;95765.78;;;26.26;56.87
32197;BME280;18697;42.770;23.400;2023-07-24T00:36:42;95764.69;;;26.44;56.41
32197;BME280;18697;42.770;23.400;2023-07-24T00:39:08;95770.03;;;26.63;55.98
32197;BME280;18697;42.770;23.400;2023-07-24T00:41:33;95773.25;;;26.75;55.14
32197;BME280;18697;42.770;23.400;2023-07-24T00:43:59;95774.38;;;26.87;54.41
32197;BME280;18697;42.770;23.400;2023-07-24T00:46:24;95770.97;;;26.89;54.33
32197;BME280;18697;42.770;23.400;2023-07-24T00:48:50;95761.88;;;26.98;54.10
32197;BME280;18697;42.770;23.400;2023-07-24T00:51:16;95755.75;;;26.94;54.23
32197;BME280;18697;42.770;23.400;2023-07-24T00:53:42;95766.41;;;26.93;53.71
32197;BME280;18697;42.770;23.400;2023-07-24T00:56:08;95764.50;;;26.96;53.93
32197;BME280;18697;42.770;23.400;2023-07-24T00:58:37;95764.72;;;27.05;53.26
32197;BME280;18697;42.770;23.400;2023-07-24T01:01:03;95755.97;;;27.11;53.37
32197;BME280;18697;42.770;23.400;2023-07-24T01:03:35;95746.84;;;27.12;53.28
32197;BME280;18697;42.770;23.400;2023-07-24T01:06:03;95745.91;;;27.02;53.57
32197;BME280;18697;42.770;23.400;2023-07-24T01:08:29;95750.28;;;27.03;53.37
32197;BME280;18697;42.770;23.400;2023-07-24T01:11:03;95755.38;;;26.82;52.18
32197;BME280;18697;42.770;23.400;2023-07-24T01:13:36;95752.56;;;26.67;53.03
32197;BME280;18697;42.770;23.400;2023-07-24T01:16:09;95760.72;;;26.55;52.49
32197;BME280;18697;42.770;23.400;2023-07-24T01:18:36;95752.31;;;25.24;54.28
32197;BME280;18697;42.770;23.400;2023-07-24T01:21:05;95763.78;;;25.47;58.56
32197;BME280;18697;42.770;23.400;2023-07-24T01:26:01;95747.06;;;25.79;56.54
32197;BME280;18697;42.770;23.400;2023-07-24T01:28:30;95748.84;;;25.98;56.10
32197;BME280;18697;42.770;23.400;2023-07-24T01:30:56;95746.19;;;26.00;55.09
32197;BME280;18697;42.770;23.400;2023-07-24T01:33:22;95739.00;;;26.22;55.83
32197;BME280;18697;42.770;23.400;2023-07-24T01:35:53;95744.38;;;26.33;54.79
32197;BME280;18697;42.770;23.400;2023-07-24T01:38:21;95743.63;;;26.32;54.13
32197;BME280;18697;42.770;23.400;2023-07-24T01:40:48;95747.41;;;26.35;54.57
32197;BME280;18697;42.770;23.400;2023-07-24T01:43:14;95751.38;;;26.32;53.64
32197;BME280;18697;42.770;23.400;2023-07-24T01:45:39;95751.38;;;26.32;54.54
32197;BME280;18697;42.770;23.400;2023-07-24T01:48:05;95759.16;;;26.31;53.21
32197;BME280;18697;42.770;23.400;2023-07-24T01:50:31;95761.28;;;25.07;54.45
32197;BME280;18697;42.770;23.400;2023-07-24T01:52:56;95773.16;;;24.56;56.64
32197;BME280;18697;42.770;23.400;2023-07-24T01:55:22;95764.28;;;24.60;60.18
32197;BME280;18697;42.770;23.400;2023-07-24T01:57:47;95771.34;;;25.08;59.18
32197;BME280;18697;42.770;23.400;2023-07-24T02:00:13;95768.09;;;25.04;55.75
32197;BME280;18697;42.770;23.400;2023-07-24T02:02:38;95761.53;;;25.17;58.21
32197;BME280;18697;42.770;23.400;2023-07-24T02:05:04;95771.78;;;25.56;57.70
32197;BME280;18697;42.770;23.400;2023-07-24T02:07:29;95765.25;;;25.76;56.44
32197;BME280;18697;42.770;23.400;2023-07-24T02:09:55;95771.22;;;25.94;56.37
32197;BME280;18697;42.770;23.400;2023-07-24T02:12:20;95755.28;;;25.98;55.43
32197;BME280;18697;42.770;23.400;2023-07-24T02:14:45;95758.75;;;26.27;54.97
32197;BME280;18697;42.770;23.400;2023-07-24T02:17:15;95761.78;;;26.29;54.71
32197;BME280;18697;42.770;23.400;2023-07-24T02:19:40;95764.81;;;26.24;53.26
32197;BME280;18697;42.770;23.400;2023-07-24T02:22:06;95765.25;;;26.35;53.41
32197;BME280;18697;42.770;23.400;2023-07-24T02:24:31;95763.66;;;26.19;53.21
32197;BME280;18697;42.770;23.400;2023-07-24T02:26:56;95766.16;;;26.23;52.96
32197;BME280;18697;42.770;23.400;2023-07-24T02:29:22;95767.91;;;26.33;54.32
32197;BME280;18697;42.770;23.400;2023-07-24T02:31:47;95763.72;;;26.34;54.33
32197;BME280;18697;42.770;23.400;2023-07-24T02:34:13;95767.72;;;26.31;54.18
32197;BME280;18697;42.770;23.400;2023-07-24T02:36:38;95759.00;;;26.44;53.75
32197;BME280;18697;42.770;23.400;2023-07-24T02:39:06;95759.00;;;26.44;53.34
32197;BME280;18697;42.770;23.400;2023-07-24T02:41:32;95755.03;;;26.47;53.83
32197;BME280;18697;42.770;23.400;2023-07-24T02:43:57;95742.47;;;26.35;53.80
32197;BME280;18697;42.770;23.400;2023-07-24T02:46:23;95748.16;;;26.35;54.13
32197;BME280;18697;42.770;23.400;2023-07-24T02:48:50;95762.41;;;26.35;53.12
32197;BME280;18697;42.770;23.400;2023-07-24T02:51:15;95752.31;;;26.27;52.63
32197;BME280;18697;42.770;23.400;2023-07-24T02:53:41;95744.94;;;26.31;54.11
32197;BME280;18697;42.770;23.400;2023-07-24T02:56:06;95736.69;;;25.97;55.34
32197;BME280;18697;42.770;23.400;2023-07-24T02:58:32;95753.34;;;25.85;54.04
32197;BME280;18697;42.770;23.400;2023-07-24T03:01:04;95752.31;;;25.32;54.11
32197;BME280;18697;42.770;23.400;2023-07-24T03:03:31;95742.19;;;25.15;54.23
32197;BME280;18697;42.770;23.400;2023-07-24T03:05:56;95751.97;;;24.78;58.05
32197;BME280;18697;42.770;23.400;2023-07-24T03:08:22;95754.31;;;24.87;58.08
32197;BME280;18697;42.770;23.400;2023-07-24T03:10:47;95759.41;;;25.10;57.40
32197;BME280;18697;42.770;23.400;2023-07-24T03:13:12;95761.84;;;25.42;57.09
32197;BME280;18697;42.770;23.400;2023-07-24T03:15:38;95765.81;;;25.75;56.01
32197;BME280;18697;42.770;23.400;2023-07-24T03:18:03;95751.69;;;25.98;55.29
32197;BME280;18697;42.770;23.400;2023-07-24T03:20:28;95753.78;;;26.12;54.65
32197;BME280;18697;42.770;23.400;2023-07-24T03:22:54;95748.13;;;26.20;54.42
32197;BME280;18697;42.770;23.400;2023-07-24T03:25:19;95746.22;;;26.23;53.78
32197;BME280;18697;42.770;23.400;2023-07-24T03:27:45;95749.31;;;26.32;53.51
32197;BME280;18697;42.770;23.400;2023-07-24T03:30:10;95755.16;;;26.27;52.64
32197;BME280;18697;42.770;23.400;2023-07-24T03:32:39;95755.00;;;26.32;53.66
32197;BME280;18697;42.770;23.400;2023-07-24T03:35:05;95752.34;;;26.34;53.30
32197;BME280;18697;42.770;23.400;2023-07-24T03:37:31;95752.34;;;26.34;53.79
32197;BME280;18697;42.770;23.400;2023-07-24T03:39:56;95745.91;;;26.41;52.80
32197;BME280;18697;42.770;23.400;2023-07-24T03:42:30;95748.94;;;26.36;52.81
32197;BME280;18697;42.770;23.400;2023-07-24T03:44:56;95751.22;;;26.37;52.86
32197;BME280;18697;42.770;23.400;2023-07-24T03:47:22;95752.38;;;26.57;53.17
32197;BME280;18697;42.770;23.400;2023-07-24T03:49:48;95752.94;;;26.63;52.53
32197;BME280;18697;42.770;23.400;2023-07-24T03:52:13;95759.03;;;26.67;52.20
32197;BME280;18697;42.770;23.400;2023-07-24T03:54:39;95763.78;;;26.72;52.47
32197;BME280;18697;42.770;23.400;2023-07-24T03:57:04;95759.19;;;26.84;51.94
32197;BME280;18697;42.770;23.400;2023-07-24T03:59:30;95771.53;;;26.87;52.37
32197;BME280;18697;42.770;23.400;2023-07-24T04:01:55;95761.66;;;26.80;52.09
32197;BME280;18697;42.770;23.400;2023-07-24T04:04:21;95759.19;;;26.77;52.48
32197;BME280;18697;42.770;23.400;2023-07-24T04:06:47;95760.53;;;26.53;50.79
32197;BME280;18697;42.770;23.400;2023-07-24T04:09:12;95760.22;;;25.18;52.91
32197;BME280;18697;42.770;23.400;2023-07-24T04:11:40;95761.50;;;24.05;56.46
32197;BME280;18697;42.770;23.400;2023-07-24T04:14:05;95774.19;;;23.04;59.25
32197;BME280;18697;42.770;23.400;2023-07-24T04:16:31;95773.31;;;22.51;61.82
32197;BME280;18697;42.770;23.400;2023-07-24T04:18:56;95782.00;;;22.08;64.66
32197;BME280;18697;42.770;23.400;2023-07-24T04:21:22;95778.78;;;21.42;66.61
32197;BME280;18697;42.770;23.400;2023-07-24T04:23:47;95781.97;;;20.84;68.81
32197;BME280;18697;42.770;23.400;2023-07-24T04:26:13;95787.28;;;20.93;71.48
32197;BME280;18697;42.770;23.400;2023-07-24T04:28:38;95795.03;;;21.11;69.67
32197;BME280;18697;42.770;23.400;2023-07-24T04:31:04;95784.28;;;21.10;70.20
32197;BME280;18697;42.770;23.400;2023-07-24T04:33:29;95789.88;;;20.66;71.65
32197;BME280;18697;42.770;23.400;2023-07-24T04:35:55;95790.91;;;20.33;73.88
32197;BME280;18697;42.770;23.400;2023-07-24T04:38:21;95792.22;;;20.27;76.31
32197;BME280;18697;42.770;23.400;2023-07-24T04:40:46;95798.97;;;21.03;74.06
32197;BME280;18697;42.770;23.400;2023-07-24T04:43:12;95804.41;;;21.00;71.92
32197;BME280;18697;42.770;23.400;2023-07-24T04:45:37;95792.50;;;21.08;72.22
32197;BME280;18697;42.770;23.400;2023-07-24T04:48:03;95781.75;;;21.06;71.70
32197;BME280;18697;42.770;23.400;2023-07-24T04:50:28;95789.97;;;21.04;72.63
32197;BME280;18697;42.770;23.400;2023-07-24T04:52:54;95784.75;;;21.38;70.95
32197;BME280;18697;42.770;23.400;2023-07-24T04:55:21;95789.22;;;22.54;68.11
32197;BME280;18697;42.770;23.400;2023-07-24T04:57:46;95797.38;;;23.16;65.53
32197;BME280;18697;42.770;23.400;2023-07-24T05:00:12;95807.09;;;23.73;63.10
32197;BME280;18697;42.770;23.400;2023-07-24T05:02:38;95813.03;;;23.96;62.51
32197;BME280;18697;42.770;23.400;2023-07-24T05:05:03;95795.38;;;24.24;61.66
32197;BME280;18697;42.770;23.400;2023-07-24T05:07:29;95797.69;;;24.67;60.36
32197;BME280;18697;42.770;23.400;2023-07-24T05:09:54;95795.13;;;24.98;59.23
32197;BME280;18697;42.770;23.400;2023-07-24T05:28:55;95783.03;;;26.20;55.23
32197;BME280;18697;42.770;23.400;2023-07-24T05:31:21;95782.84;;;26.18;54.98
32197;BME280;18697;42.770;23.400;2023-07-24T05:33:46;95784.38;;;25.68;55.64
32197;BME280;18697;42.770;23.400;2023-07-24T05:36:12;95782.66;;;25.37;57.50
32197;BME280;18697;42.770;23.400;2023-07-24T05:38:37;95781.81;;;24.72;60.25
32197;BME280;18697;42.770;23.400;2023-07-24T05:41:03;95780.03;;;24.40;61.37
32197;BME280;18697;42.770;23.400;2023-07-24T05:43:29;95782.72;;;24.67;60.50
32197;BME280;18697;42.770;23.400;2023-07-24T05:45:56;95772.31;;;24.69;59.97
32197;BME280;18697;42.770;23.400;2023-07-24T05:48:22;95774.81;;;24.73;60.22
32197;BME280;18697;42.770;23.400;2023-07-24T05:50:48;95780.72;;;23.65;62.88
32197;BME280;18697;42.770;23.400;2023-07-24T05:53:15;95777.72;;;24.18;62.07
32197;BME280;18697;42.770;23.400;2023-07-24T05:55:40;95777.06;;;24.46;61.24
32197;BME280;18697;42.770;23.400;2023-07-24T05:58:06;95771.56;;;24.69;60.65
32197;BME280;18697;42.770;23.400;2023-07-24T06:00:32;95778.34;;;24.66;60.79
32197;BME280;18697;42.770;23.400;2023-07-24T06:02:58;95774.75;;;24.86;60.11
32197;BME280;18697;42.770;23.400;2023-07-24T06:05:23;95762.47;;;25.12;59.22
32197;BME280;18697;42.770;23.400;2023-07-24T06:07:49;95765.25;;;25.04;58.89
32197;BME280;18697;42.770;23.400;2023-07-24T06:10:14;95757.69;;;25.07;59.71
32197;BME280;18697;42.770;23.400;2023-07-24T06:12:39;95766.81;;;24.92;59.34
32197;BME280;18697;42.770;23.400;2023-07-24T06:15:05;95758.78;;;25.04;59.91
32197;BME280;18697;42.770;23.400;2023-07-24T06:17:31;95754.69;;;25.48;58.41
32197;BME280;18697;42.770;23.400;2023-07-24T06:19:57;95759.56;;;25.40;59.31
32197;BME280;18697;42.770;23.400;2023-07-24T06:22:22;95759.41;;;25.10;59.63
32197;BME280;18697;42.770;23.400;2023-07-24T06:24:48;95758.66;;;25.09;60.12
32197;BME280;18697;42.770;23.400;2023-07-24T06:27:13;95746.72;;;25.47;58.90
32197;BME280;18697;42.770;23.400;2023-07-24T06:29:39;95754.00;;;25.63;58.80
32197;BME280;18697;42.770;23.400;2023-07-24T06:32:05;95748.78;;;25.82;58.08
32197;BME280;18697;42.770;23.400;2023-07-24T06:34:30;95754.91;;;25.94;57.42
32197;BME280;18697;42.770;23.400;2023-07-24T06:36:56;95754.16;;;26.09;57.32
32197;BME280;18697;42.770;23.400;2023-07-24T06:39:21;95751.94;;;26.30;56.80
32197;BME280;18697;42.770;23.400;2023-07-24T06:41:46;95758.25;;;26.44;56.56
32197;BME280;18697;42.770;23.400;2023-07-24T06:44:12;95747.63;;;26.60;55.54
32197;BME280;18697;42.770;23.400;2023-07-24T06:46:37;95746.66;;;26.88;55.57
32197;BME280;18697;42.770;23.400;2023-07-24T06:49:03;95729.00;;;27.04;54.68
32197;BME280;18697;42.770;23.400;2023-07-24T06:51:28;95742.25;;;27.25;53.97
32197;BME280;18697;42.770;23.400;2023-07-24T06:53:54;95739.00;;;27.36;53.15
32197;BME280;18697;42.770;23.400;2023-07-24T06:56:19;95737.78;;;27.54;53.34
32197;BME280;18697;42.770;23.400;2023-07-24T06:58:45;95738.53;;;27.62;52.98
32197;BME280;18697;42.770;23.400;2023-07-24T07:01:10;95734.00;;;27.52;53.24
32197;BME280;18697;42.770;23.400;2023-07-24T07:03:35;95738.31;;;26.97;51.72
32197;BME280;18697;42.770;23.400;2023-07-24T07:06:01;95744.78;;;26.52;53.21
32197;BME280;18697;42.770;23.400;2023-07-24T07:08:28;95744.97;;;26.54;51.98
32197;BME280;18697;42.770;23.400;2023-07-24T07:10:58;95749.91;;;26.54;52.77
32197;BME280;18697;42.770;23.400;2023-07-24T07:13:24;95748.75;;;26.41;54.39
32197;BME280;18697;42.770;23.400;2023-07-24T07:15:50;95743.56;;;26.17;54.72
32197;BME280;18697;42.770;23.400;2023-07-24T07:18:15;95753.34;;;25.85;54.99
32197;BME280;18697;42.770;23.400;2023-07-24T07:20:47;95752.84;;;25.59;55.62
32197;BME280;18697;42.770;23.400;2023-07-24T07:23:14;95738.97;;;25.99;54.25
32197;BME280;18697;42.770;23.400;2023-07-24T07:25:40;95735.78;;;26.25;54.97
32197;BME280;18697;42.770;23.400;2023-07-24T07:28:05;95735.09;;;26.55;53.95
32197;BME280;18697;42.770;23.400;2023-07-24T07:30:31;95740.38;;;26.81;53.61
32197;BME280;18697;42.770;23.400;2023-07-24T07:32:56;95736.19;;;27.13;52.84
32197;BME280;18697;42.770;23.400;2023-07-24T07:35:21;95728.41;;;26.83;52.56
32197;BME280;18697;42.770;23.400;2023-07-24T07:37:47;95731.44;;;26.93;52.24
32197;BME280;18697;42.770;23.400;2023-07-24T07:40:12;95736.41;;;26.77;51.89
32197;BME280;18697;42.770;23.400;2023-07-24T07:42:38;95724.00;;;27.35;52.17
32197;BME280;18697;42.770;23.400;2023-07-24T07:45:04;95728.00;;;27.32;48.78
32197;BME280;18697;42.770;23.400;2023-07-24T07:47:29;95725.19;;;26.87;49.01
32197;BME280;18697;42.770;23.400;2023-07-24T07:49:55;95728.22;;;27.11;49.86
32197;BME280;18697;42.770;23.400;2023-07-24T07:52:20;95722.81;;;27.46;51.03
32197;BME280;18697;42.770;23.400;2023-07-24T07:54:48;95729.34;;;27.79;49.36
32197;BME280;18697;42.770;23.400;2023-07-24T07:57:13;95721.66;;;27.97;48.85
32197;BME280;18697;42.770;23.400;2023-07-24T07:59:39;95721.00;;;27.73;48.79
32197;BME280;18697;42.770;23.400;2023-07-24T08:02:04;95719.91;;;27.61;48.12
32197;BME280;18697;42.770;23.400;2023-07-24T08:04:30;95722.44;;;27.90;48.59
32197;BME280;18697;42.770;23.400;2023-07-24T08:06:55;95720.22;;;27.80;48.10
32197;BME280;18697;42.770;23.400;2023-07-24T08:09:21;95713.97;;;28.07;48.06
32197;BME280;18697;42.770;23.400;2023-07-24T08:11:47;95721.22;;;28.08;47.60
32197;BME280;18697;42.770;23.400;2023-07-24T08:14:13;95716.63;;;28.12;49.27
32197;BME280;18697;42.770;23.400;2023-07-24T08:16:38;95714.88;;;28.17;49.50
32197;BME280;18697;42.770;23.400;2023-07-24T08:19:04;95710.84;;;27.88;47.04
32197;BME280;18697;42.770;23.400;2023-07-24T08:21:29;95709.28;;;27.94;47.12
32197;BME280;18697;42.770;23.400;2023-07-24T08:23:54;95711.66;;;28.13;46.49
32197;BME280;18697;42.770;23.400;2023-07-24T08:26:20;95710.06;;;27.95;46.67
32197;BME280;18697;42.770;23.400;2023-07-24T08:28:45;95716.13;;;27.99;45.75
32197;BME280;18697;42.770;23.400;2023-07-24T08:31:11;95709.34;;;28.19;44.39
32197;BME280;18697;42.770;23.400;2023-07-24T08:33:36;95698.06;;;28.54;46.07
32197;BME280;18697;42.770;23.400;2023-07-24T08:36:06;95703.53;;;28.84;45.63
32197;BME280;18697;42.770;23.400;2023-07-24T08:38:32;95696.47;;;28.85;43.22
32197;BME280;18697;42.770;23.400;2023-07-24T08:43:30;95686.91;;;29.59;44.13
32197;BME280;18697;42.770;23.400;2023-07-24T08:45:58;95695.94;;;30.00;44.09
32197;BME280;18697;42.770;23.400;2023-07-24T08:48:25;95688.44;;;30.04;41.54
32197;BME280;18697;42.770;23.400;2023-07-24T08:50:51;95687.19;;;29.81;40.70
32197;BME280;18697;42.770;23.400;2023-07-24T08:53:19;95679.91;;;29.97;41.20
32197;BME280;18697;42.770;23.400;2023-07-24T08:55:45;95679.47;;;30.18;40.60
32197;BME280;18697;42.770;23.400;2023-07-24T08:58:13;95693.19;;;30.19;39.45
32197;BME280;18697;42.770;23.400;2023-07-24T09:00:39;95684.75;;;30.21;39.54
32197;BME280;18697;42.770;23.400;2023-07-24T09:03:05;95677.44;;;30.37;41.22
32197;BME280;18697;42.770;23.400;2023-07-24T09:05:30;95673.69;;;30.45;40.25
32197;BME280;18697;42.770;23.400;2023-07-24T09:07:56;95675.09;;;30.17;42.79
32197;BME280;18697;42.770;23.400;2023-07-24T09:10:27;95673.69;;;30.45;42.58
32197;BME280;18697;42.770;23.400;2023-07-24T09:12:54;95673.25;;;30.12;40.85
32197;BME280;18697;42.770;23.400;2023-07-24T09:15:20;95671.25;;;30.04;40.77
32197;BME280;18697;42.770;23.400;2023-07-24T09:17:52;95677.94;;;30.17;43.06
32197;BME280;18697;42.770;23.400;2023-07-24T09:20:19;95662.69;;;30.51;41.88
32197;BME280;18697;42.770;23.400;2023-07-24T09:23:02;95674.44;;;30.08;42.51
32197;BME280;18697;42.770;23.400;2023-07-24T09:25:32;95654.56;;;30.57;44.49
32197;BME280;18697;42.770;23.400;2023-07-24T09:27:58;95653.72;;;30.73;42.24
32197;BME280;18697;42.770;23.400;2023-07-24T09:30:23;95650.91;;;31.02;41.92
32197;BME280;18697;42.770;23.400;2023-07-24T09:32:53;95652.91;;;31.29;42.48
32197;BME280;18697;42.770;23.400;2023-07-24T09:35:20;95652.16;;;31.57;41.68
32197;BME280;18697;42.770;23.400;2023-07-24T09:37:46;95646.25;;;31.46;38.95
32197;BME280;18697;42.770;23.400;2023-07-24T09:40:14;95641.56;;;31.60;40.65
32197;BME280;18697;42.770;23.400;2023-07-24T09:42:40;95635.66;;;31.87;42.53
32197;BME280;18697;42.770;23.400;2023-07-24T09:45:06;95639.31;;;31.68;39.64
32197;BME280;18697;42.770;23.400;2023-07-24T09:47:33;95629.00;;;31.84;38.96
32197;BME280;18697;42.770;23.400;2023-07-24T09:49:59;95621.91;;;31.85;39.95
32197;BME280;18697;42.770;23.400;2023-07-24T09:52:27;95616.19;;;31.56;39.23
32197;BME280;18697;42.770;23.400;2023-07-24T09:55:09;95621.41;;;31.98;37.75
32197;BME280;18697;42.770;23.400;2023-07-24T09:57:35;95611.34;;;32.28;35.17
32197;BME280;18697;42.770;23.400;2023-07-24T10:00:02;95601.34;;;32.60;38.81
32197;BME280;18697;42.770;23.400;2023-07-24T10:02:28;95603.50;;;32.72;36.47
32197;BME280;18697;42.770;23.400;2023-07-24T10:04:55;95612.66;;;32.37;36.63
32197;BME280;18697;42.770;23.400;2023-07-24T10:07:22;95605.31;;;32.55;35.88
32197;BME280;18697;42.770;23.400;2023-07-24T10:09:48;95589.75;;;32.70;37.51
32197;BME280;18697;42.770;23.400;2023-07-24T10:12:18;95606.06;;;32.56;36.77
32197;BME280;18697;42.770;23.400;2023-07-24T10:14:46;95592.47;;;32.78;36.63
32197;BME280;18697;42.770;23.400;2023-07-24T10:17:12;95596.78;;;33.10;36.32
32197;BME280;18697;42.770;23.400;2023-07-24T10:19:41;95600.69;;;33.36;36.07
32197;BME280;18697;42.770;23.400;2023-07-24T10:22:20;95595.94;;;33.40;35.07
32197;BME280;18697;42.770;23.400;2023-07-24T10:24:46;95590.06;;;33.50;34.68
32197;BME280;18697;42.770;23.400;2023-07-24T10:27:12;95585.97;;;33.64;34.50
32197;BME280;18697;42.770;23.400;2023-07-24T10:29:37;95580.06;;;33.84;35.83
32197;BME280;18697;42.770;23.400;2023-07-24T10:32:03;95576.56;;;33.97;36.20
32197;BME280;18697;42.770;23.400;2023-07-24T10:34:38;95580.22;;;34.09;34.78
32197;BME280;18697;42.770;23.400;2023-07-24T10:37:07;95580.59;;;34.15;34.14
32197;BME280;18697;42.770;23.400;2023-07-24T10:39:40;95573.72;;;34.32;34.48
32197;BME280;18697;42.770;23.400;2023-07-24T10:42:10;95574.47;;;34.44;34.08
32197;BME280;18697;42.770;23.400;2023-07-24T10:44:37;95566.69;;;34.47;32.73
32197;BME280;18697;42.770;23.400;2023-07-24T10:47:02;95564.69;;;34.38;32.72
32197;BME280;18697;42.770;23.400;2023-07-24T10:49:28;95570.31;;;34.36;33.20
32197;BME280;18697;42.770;23.400;2023-07-24T10:51:57;95566.56;;;34.45;33.65
32197;BME280;18697;42.770;23.400;2023-07-24T10:54:23;95564.13;;;33.83;33.74
32197;BME280;18697;42.770;23.400;2023-07-24T10:56:49;95550.38;;;33.48;33.47
32197;BME280;18697;42.770;23.400;2023-07-24T10:59:14;95537.59;;;33.96;35.92
32197;BME280;18697;42.770;23.400;2023-07-24T11:01:42;95540.25;;;34.15;34.92
32197;BME280;18697;42.770;23.400;2023-07-24T11:04:08;95537.72;;;34.21;33.27
32197;BME280;18697;42.770;23.400;2023-07-24T11:06:34;95526.47;;;34.37;34.70
32197;BME280;18697;42.770;23.400;2023-07-24T11:09:00;95525.66;;;34.60;35.31
32197;BME280;18697;42.770;23.400;2023-07-24T11:11:30;95525.41;;;34.68;34.90
32197;BME280;18697;42.770;23.400;2023-07-24T11:13:55;95529.78;;;34.80;34.26
32197;BME280;18697;42.770;23.400;2023-07-24T11:16:21;95523.06;;;35.01;34.32
32197;BME280;18697;42.770;23.400;2023-07-24T11:18:48;95519.13;;;34.83;33.46
32197;BME280;18697;42.770;23.400;2023-07-24T11:21:14;95518.69;;;34.40;34.50
32197;BME280;18697;42.770;23.400;2023-07-24T11:23:59;95511.91;;;34.47;34.07
32197;BME280;18697;42.770;23.400;2023-07-24T11:26:26;95495.19;;;34.69;35.91
32197;BME280;18697;42.770;23.400;2023-07-24T11:28:53;95493.41;;;34.87;36.00
32197;BME280;18697;42.770;23.400;2023-07-24T11:31:18;95489.47;;;34.94;34.95
32197;BME280;18697;42.770;23.400;2023-07-24T11:33:48;95499.16;;;35.12;34.05
32197;BME280;18697;42.770;23.400;2023-07-24T11:36:15;95498.78;;;35.18;33.50
32197;BME280;18697;42.770;23.400;2023-07-24T11:38:40;95493.09;;;35.32;33.35
32197;BME280;18697;42.770;23.400;2023-07-24T11:41:08;95487.13;;;35.41;33.34
32197;BME280;18697;42.770;23.400;2023-07-24T11:43:33;95478.47;;;35.41;32.81
32197;BME280;18697;42.770;23.400;2023-07-24T11:45:59;95484.13;;;35.39;33.42
32197;BME280;18697;42.770;23.400;2023-07-24T11:48:24;95475.69;;;35.43;33.34
32197;BME280;18697;42.770;23.400;2023-07-24T11:50:52;95478.47;;;35.41;33.19
32197;BME280;18697;42.770;23.400;2023-07-24T11:53:22;95484.00;;;35.37;33.40
32197;BME280;18697;42.770;23.400;2023-07-24T11:55:48;95483.25;;;35.37;32.76
32197;BME280;18697;42.770;23.400;2023-07-24T11:58:15;95483.25;;;34.86;33.22
32197;BME280;18697;42.770;23.400;2023-07-24T12:00:41;95462.34;;;34.99;35.08
32197;BME280;18697;42.770;23.400;2023-07-24T12:03:07;95466.44;;;35.08;34.05
32197;BME280;18697;42.770;23.400;2023-07-24T12:05:43;95469.81;;;33.72;34.00
32197;BME280;18697;42.770;23.400;2023-07-24T12:08:10;95466.47;;;33.99;34.11
32197;BME280;18697;42.770;23.400;2023-07-24T12:10:39;95468.16;;;33.45;34.56
32197;BME280;18697;42.770;23.400;2023-07-24T12:13:05;95456.28;;;33.39;37.11
32197;BME280;18697;42.770;23.400;2023-07-24T12:15:31;95442.66;;;33.86;35.98
32197;BME280;18697;42.770;23.400;2023-07-24T12:17:58;95448.13;;;34.17;35.37
32197;BME280;18697;42.770;23.400;2023-07-24T12:20:23;95454.75;;;34.43;35.20
32197;BME280;18697;42.770;23.400;2023-07-24T12:22:49;95455.19;;;34.63;34.29
32197;BME280;18697;42.770;23.400;2023-07-24T12:25:14;95455.22;;;34.51;34.61
32197;BME280;18697;42.770;23.400;2023-07-24T12:27:43;95446.66;;;34.16;33.41
32197;BME280;18697;42.770;23.400;2023-07-24T12:30:08;95439.00;;;34.33;34.19
32197;BME280;18697;42.770;23.400;2023-07-24T12:32:34;95442.03;;;34.60;34.19
32197;BME280;18697;42.770;23.400;2023-07-24T12:35:00;95431.75;;;34.08;35.01
32197;BME280;18697;42.770;23.400;2023-07-24T12:37:25;95439.03;;;33.98;36.06
32197;BME280;18697;42.770;23.400;2023-07-24T12:39:51;95438.28;;;33.97;35.15
32197;BME280;18697;42.770;23.400;2023-07-24T12:42:16;95423.13;;;34.08;35.96
32197;BME280;18697;42.770;23.400;2023-07-24T12:44:42;95426.94;;;34.36;34.35
32197;BME280;18697;42.770;23.400;2023-07-24T12:47:08;95414.91;;;34.28;36.96
32197;BME280;18697;42.770;23.400;2023-07-24T12:49:33;95426.00;;;34.57;34.39
32197;BME280;18697;42.770;23.400;2023-07-24T12:51:59;95424.06;;;34.73;34.53
32197;BME280;18697;42.770;23.400;2023-07-24T12:54:24;95427.75;;;34.62;33.38
32197;BME280;18697;42.770;23.400;2023-07-24T12:56:50;95419.16;;;34.27;34.36
32197;BME280;18697;42.770;23.400;2023-07-24T12:59:18;95418.63;;;34.54;34.18
32197;BME280;18697;42.770;23.400;2023-07-24T13:01:44;95422.66;;;34.49;33.65
32197;BME280;18697;42.770;23.400;2023-07-24T13:04:10;95416.91;;;34.74;34.06
32197;BME280;18697;42.770;23.400;2023-07-24T13:06:36;95409.09;;;34.88;33.53